イースター島 の空港の天気 - METARとTAF

マタベリ国際空港 ( SCIP / IPC ) - チリ イースター島
飛行場実況気象(Metar)
観測時間10/19 13:00 EAST (10/19 18:00 UTC)
風向・風速西北西 4m/s
視程10km以上
天気現象
全天の8割程度の雲 雲底高度 820m
全天の8割程度の雲 雲底高度 7320m
気温22℃
湿度69%
気圧1023hPa
METARSCIP 191800Z 30007KT 9999 BKN027 BKN240 22/16 Q1023 NOSIG
過去の天気等 Google飛行場航空写真 Wunderground天気予報

過去48時間のMETAR

飛行場予報(TAF)
発表時間: 10/19 11:30 EAST (10/19 16:30 UTC)
予報対象時間: 19日13時 EAST ~ 20日13時 EAST
風向・風速北北西 4m/s
視程10km以上
全天の4割程度の雲 雲底高度 760m
19日15時 EAST ~ 19日18時 EAST に一時的に
風向・風速西 2m/s
全天の8割程度の雲 雲底高度 610m
19日20時 EAST ~ 19日22時 EAST に徐々に
風向・風速東南東 3m/s
20日3時 EAST ~ 20日9時 EAST に一時的に
風向・風速不定 1m/s
天気現象弱いしゅう雨
20日10時 EAST ~ 20日12時 EAST に徐々に
風向・風速北北西 4m/s
TAF SCIP 191630Z 1918/2018 33007KT 9999 SCT025 TX23/1920Z TN16/2012Z
TEMPO 1920/1923 27004KT BKN020
BECMG 2001/2003 11005KT
TEMPO 2008/2014 VRB02KT -SHRA 8000 SCT020 BKN040
BECMG 2015/2017 33007KT